createdAt,value
2022-09-07T00:00:16.174Z,96.80
2022-09-07T00:01:16.162Z,85.30
2022-09-07T00:02:16.139Z,87.30
2022-09-07T00:03:16.722Z,90.70
2022-09-07T00:04:16.191Z,93.20
2022-09-07T00:05:16.105Z,90.30
2022-09-07T00:06:16.104Z,88.70
2022-09-07T00:07:16.068Z,84.10
2022-09-07T00:08:16.071Z,84.50
2022-09-07T00:09:16.425Z,86.80
2022-09-07T00:10:16.047Z,91.10
2022-09-07T00:11:16.027Z,87.10
2022-09-07T00:12:16.015Z,87.00
2022-09-07T00:13:16.419Z,88.60
2022-09-07T00:14:15.995Z,84.10
2022-09-07T00:15:15.975Z,96.00
2022-09-07T00:16:16.006Z,82.00
2022-09-07T00:17:15.947Z,83.60
2022-09-07T00:18:15.935Z,88.30
2022-09-07T00:19:16.296Z,81.50
2022-09-07T00:20:15.915Z,83.70
2022-09-07T00:21:15.904Z,80.10
2022-09-07T00:22:15.884Z,79.90
2022-09-07T00:23:16.285Z,84.90
2022-09-07T00:24:15.863Z,76.40
2022-09-07T00:25:15.846Z,88.40
2022-09-07T00:26:15.841Z,79.40
2022-09-07T00:27:15.813Z,79.90
2022-09-07T00:28:15.803Z,79.50
2022-09-07T00:29:16.227Z,79.10
2022-09-07T00:30:15.783Z,85.50
2022-09-07T00:31:15.790Z,89.80
2022-09-07T00:32:15.753Z,81.60
2022-09-07T00:33:16.105Z,82.40
2022-09-07T00:34:15.722Z,77.40
2022-09-07T00:35:15.715Z,75.90
2022-09-07T00:36:15.714Z,79.90
2022-09-07T00:37:15.694Z,76.20
2022-09-07T00:38:15.691Z,75.40
2022-09-07T00:39:16.025Z,78.70
2022-09-07T00:40:15.653Z,76.00
2022-09-07T00:41:15.634Z,77.80
2022-09-07T00:42:15.622Z,78.60
2022-09-07T00:43:16.028Z,87.50
2022-09-07T00:44:15.599Z,79.40
2022-09-07T00:45:15.581Z,91.00
2022-09-07T00:46:15.662Z,87.10
2022-09-07T00:47:15.555Z,82.90
2022-09-07T00:48:15.921Z,88.90
2022-09-07T00:49:15.531Z,82.70
2022-09-07T00:50:15.523Z,89.60
2022-09-07T00:51:15.506Z,82.00
2022-09-07T00:52:15.495Z,80.70
2022-09-07T00:53:15.479Z,85.00
2022-09-07T00:54:15.797Z,86.20
2022-09-07T00:55:15.457Z,80.30
2022-09-07T00:56:15.467Z,93.40
2022-09-07T00:57:15.433Z,95.90
2022-09-07T00:58:15.409Z,89.00
2022-09-07T00:59:15.831Z,79.80
2022-09-07T01:00:15.407Z,84.40
2022-09-07T01:01:15.441Z,78.50
2022-09-07T01:02:15.531Z,79.40
2022-09-07T01:03:15.740Z,82.80
2022-09-07T01:04:15.331Z,78.80
2022-09-07T01:05:15.322Z,83.30
2022-09-07T01:06:15.319Z,94.70
2022-09-07T01:07:15.308Z,82.60
2022-09-07T01:08:15.288Z,82.80
2022-09-07T01:09:15.651Z,80.30
2022-09-07T01:10:15.259Z,74.50
2022-09-07T01:11:15.252Z,79.60
2022-09-07T01:12:15.228Z,84.90
2022-09-07T01:13:15.646Z,79.50
2022-09-07T01:14:15.216Z,83.00
2022-09-07T01:15:15.200Z,80.00
2022-09-07T01:16:15.257Z,87.60
2022-09-07T01:17:15.176Z,86.30
2022-09-07T01:18:15.160Z,79.70
2022-09-07T01:19:15.560Z,80.00
2022-09-07T01:20:15.130Z,78.00
2022-09-07T01:21:15.118Z,79.20
2022-09-07T01:22:15.106Z,82.10
2022-09-07T01:23:15.449Z,81.80
2022-09-07T01:24:15.081Z,90.40
2022-09-07T01:25:15.067Z,78.40
2022-09-07T01:26:15.070Z,80.50
2022-09-07T01:27:15.047Z,78.50
2022-09-07T01:28:15.027Z,79.20
2022-09-07T01:29:15.364Z,87.00
2022-09-07T01:30:15.010Z,80.00
2022-09-07T01:31:14.995Z,91.00
2022-09-07T01:32:14.977Z,85.20
2022-09-07T01:33:15.385Z,70.90
2022-09-07T01:34:14.954Z,78.00
2022-09-07T01:35:14.941Z,79.60
2022-09-07T01:36:14.948Z,78.00
2022-09-07T01:37:14.914Z,78.00
2022-09-07T01:38:14.895Z,75.20
2022-09-07T01:39:15.305Z,71.40
2022-09-07T01:40:14.879Z,78.30
2022-09-07T01:41:14.853Z,77.50
2022-09-07T01:42:14.844Z,79.00
2022-09-07T01:43:15.177Z,75.70
2022-09-07T01:44:14.822Z,77.20
2022-09-07T01:45:14.804Z,77.90
2022-09-07T01:46:14.820Z,75.30
2022-09-07T01:47:14.791Z,78.20
2022-09-07T01:48:14.762Z,78.50
2022-09-07T01:49:15.194Z,86.50
2022-09-07T01:50:14.742Z,80.20
2022-09-07T01:51:14.727Z,77.10
2022-09-07T01:52:14.737Z,76.90
2022-09-07T01:53:15.093Z,80.30
2022-09-07T01:54:14.692Z,79.30
2022-09-07T01:55:14.672Z,70.80
2022-09-07T01:56:14.660Z,80.90
2022-09-07T01:57:14.652Z,78.50
2022-09-07T01:58:14.642Z,81.10
2022-09-07T01:59:14.993Z,77.60
2022-09-07T02:00:14.620Z,81.30
2022-09-07T02:01:14.629Z,76.80
2022-09-07T02:02:14.590Z,73.20
2022-09-07T02:03:15.005Z,79.50
2022-09-07T02:04:14.554Z,75.80
2022-09-07T02:05:14.551Z,80.30
2022-09-07T02:06:14.531Z,74.40
2022-09-07T02:07:14.527Z,75.70
2022-09-07T02:08:14.530Z,77.10
2022-09-07T02:09:14.926Z,72.30
2022-09-07T02:10:14.480Z,90.60
2022-09-07T02:11:14.474Z,83.70
2022-09-07T02:12:14.450Z,80.10
2022-09-07T02:13:14.797Z,81.30
2022-09-07T02:14:14.421Z,86.00
2022-09-07T02:15:14.427Z,86.70
2022-09-07T02:16:14.474Z,79.40
2022-09-07T02:17:14.406Z,85.80
2022-09-07T02:18:14.384Z,75.30
2022-09-07T02:19:14.808Z,85.90
2022-09-07T02:20:14.351Z,79.20
2022-09-07T02:21:14.339Z,87.20
2022-09-07T02:22:14.327Z,83.10
2022-09-07T02:23:14.691Z,81.00
2022-09-07T02:24:14.309Z,86.80
2022-09-07T02:25:14.287Z,81.50
2022-09-07T02:26:14.268Z,84.50
2022-09-07T02:27:14.270Z,88.30
2022-09-07T02:28:14.597Z,90.50
2022-09-07T02:29:14.248Z,80.40
2022-09-07T02:30:14.229Z,96.00
2022-09-07T02:31:14.244Z,84.10
2022-09-07T02:32:14.196Z,80.60
2022-09-07T02:33:14.616Z,89.00
2022-09-07T02:34:14.174Z,87.80
2022-09-07T02:35:14.157Z,84.30
2022-09-07T02:36:14.158Z,82.80
2022-09-07T02:37:14.139Z,82.00
2022-09-07T02:38:14.117Z,80.10
2022-09-07T02:39:14.514Z,82.40
2022-09-07T02:40:14.105Z,85.80
2022-09-07T02:41:14.095Z,79.60
2022-09-07T02:42:14.065Z,88.00
2022-09-07T02:43:14.485Z,82.20
2022-09-07T02:44:14.039Z,97.60
2022-09-07T02:45:14.025Z,85.50
2022-09-07T02:46:14.115Z,84.10
2022-09-07T02:47:14.016Z,96.80
2022-09-07T02:48:14.002Z,78.40
2022-09-07T02:49:14.395Z,83.80
2022-09-07T02:50:13.971Z,86.20
2022-09-07T02:51:13.944Z,87.90
2022-09-07T02:52:13.955Z,83.20
2022-09-07T02:53:14.275Z,81.50
2022-09-07T02:54:13.920Z,91.50
2022-09-07T02:55:13.903Z,86.80
2022-09-07T02:56:13.889Z,86.60
2022-09-07T02:57:13.884Z,86.40
2022-09-07T02:58:13.865Z,92.70
2022-09-07T02:59:14.275Z,86.10
2022-09-07T03:00:13.833Z,85.90
2022-09-07T03:01:13.888Z,83.70
2022-09-07T03:02:13.877Z,88.40
2022-09-07T03:03:14.203Z,86.50
2022-09-07T03:04:13.784Z,90.30
2022-09-07T03:05:13.776Z,89.90
2022-09-07T03:06:13.763Z,88.30
2022-09-07T03:07:13.754Z,84.10
2022-09-07T03:08:13.736Z,83.00
2022-09-07T03:09:14.142Z,88.50
2022-09-07T03:10:13.721Z,74.20
2022-09-07T03:11:13.692Z,84.00
2022-09-07T03:12:13.703Z,84.00
2022-09-07T03:13:13.899Z,87.90
2022-09-07T03:14:13.653Z,92.00
2022-09-07T03:15:13.645Z,89.80
2022-09-07T03:16:13.693Z,87.70
2022-09-07T03:17:13.630Z,91.30
2022-09-07T03:18:13.610Z,84.90
2022-09-07T03:19:13.963Z,91.00
2022-09-07T03:20:13.581Z,86.20
2022-09-07T03:21:13.572Z,87.00
2022-09-07T03:22:13.571Z,81.60
2022-09-07T03:23:13.969Z,89.60
2022-09-07T03:24:13.530Z,94.30
2022-09-07T03:25:13.537Z,87.60
2022-09-07T03:26:13.504Z,86.70
2022-09-07T03:27:13.503Z,78.50
2022-09-07T03:28:13.472Z,82.00
2022-09-07T03:29:13.899Z,82.60
2022-09-07T03:30:13.457Z,82.00
2022-09-07T03:31:13.626Z,76.40
2022-09-07T03:32:13.436Z,74.60
2022-09-07T03:33:13.838Z,78.40
2022-09-07T03:34:13.420Z,73.10
2022-09-07T03:35:14.413Z,86.20
2022-09-07T03:36:13.379Z,74.70
2022-09-07T03:37:13.369Z,83.80
2022-09-07T03:38:13.363Z,73.40
2022-09-07T03:39:13.768Z,76.50
2022-09-07T03:40:13.400Z,80.70
2022-09-07T03:41:13.318Z,82.30
2022-09-07T03:42:13.298Z,77.60
2022-09-07T03:43:13.517Z,76.40
2022-09-07T03:44:13.300Z,88.20
2022-09-07T03:45:13.266Z,82.00
2022-09-07T03:46:13.334Z,88.00
2022-09-07T03:47:13.237Z,82.10
2022-09-07T03:48:13.219Z,72.60
2022-09-07T03:49:13.636Z,75.80
2022-09-07T03:50:13.196Z,86.20
2022-09-07T03:51:13.196Z,87.30
2022-09-07T03:52:13.166Z,89.50
2022-09-07T03:53:13.577Z,79.70
2022-09-07T03:54:13.146Z,82.50
2022-09-07T03:55:13.140Z,86.80
2022-09-07T03:56:13.128Z,76.10
2022-09-07T03:57:13.117Z,81.20
2022-09-07T03:58:13.087Z,82.40
2022-09-07T03:59:13.468Z,79.20
2022-09-07T04:00:13.686Z,83.10
2022-09-07T04:01:13.207Z,83.10
2022-09-07T04:02:13.081Z,81.10
2022-09-07T04:03:13.355Z,91.10
2022-09-07T04:04:13.016Z,84.40
2022-09-07T04:05:13.027Z,86.30
2022-09-07T04:06:12.994Z,88.30
2022-09-07T04:07:12.974Z,80.40
2022-09-07T04:08:13.322Z,83.90
2022-09-07T04:09:12.965Z,86.00
2022-09-07T04:10:12.934Z,87.90
2022-09-07T04:11:12.924Z,88.40
2022-09-07T04:12:12.912Z,85.10
2022-09-07T04:13:13.238Z,88.90
2022-09-07T04:14:12.892Z,91.00
2022-09-07T04:15:12.870Z,83.50
2022-09-07T04:16:12.871Z,81.80
2022-09-07T04:17:12.895Z,87.30
2022-09-07T04:18:12.837Z,87.20
2022-09-07T04:19:13.253Z,85.30
2022-09-07T04:20:12.807Z,78.90
2022-09-07T04:21:12.792Z,76.90
2022-09-07T04:22:12.783Z,93.90
2022-09-07T04:23:13.099Z,83.10
2022-09-07T04:24:12.752Z,92.90
2022-09-07T04:25:12.754Z,84.00
2022-09-07T04:26:12.761Z,89.10
2022-09-07T04:27:12.772Z,81.90
2022-09-07T04:28:12.721Z,89.30
2022-09-07T04:29:13.011Z,81.00
2022-09-07T04:30:12.687Z,87.90
2022-09-07T04:31:12.695Z,91.10
2022-09-07T04:32:15.660Z,94.70
2022-09-07T04:33:13.066Z,92.30
2022-09-07T04:34:12.621Z,87.40
2022-09-07T04:35:12.633Z,91.80
2022-09-07T04:36:12.601Z,89.70
2022-09-07T04:37:12.594Z,94.70
2022-09-07T04:38:12.591Z,97.00
2022-09-07T04:39:12.881Z,89.90
2022-09-07T04:40:12.583Z,88.10
2022-09-07T04:41:12.566Z,82.80
2022-09-07T04:42:12.520Z,93.60
2022-09-07T04:43:12.951Z,91.40
2022-09-07T04:44:16.236Z,89.20
2022-09-07T04:45:12.487Z,83.50
2022-09-07T04:46:12.566Z,92.70
2022-09-07T04:47:12.715Z,89.00
2022-09-07T04:48:12.462Z,88.20
2022-09-07T04:49:12.582Z,86.00
2022-09-07T04:50:12.433Z,88.90
2022-09-07T04:51:12.459Z,87.10
2022-09-07T04:52:12.501Z,89.00
2022-09-07T04:53:12.746Z,84.00
2022-09-07T04:54:12.534Z,80.90
2022-09-07T04:55:12.360Z,83.80
2022-09-07T04:56:16.771Z,80.90
2022-09-07T04:57:12.811Z,90.90
2022-09-07T04:58:12.355Z,87.30
2022-09-07T04:59:12.767Z,86.50
2022-09-07T05:00:12.316Z,86.10
2022-09-07T05:01:12.536Z,83.60
2022-09-07T05:02:12.420Z,93.80
2022-09-07T05:03:12.292Z,81.70
2022-09-07T05:04:12.237Z,81.70
2022-09-07T05:05:12.232Z,78.30
2022-09-07T05:06:12.210Z,85.40
2022-09-07T05:07:12.210Z,84.40
2022-09-07T05:08:12.507Z,83.60
2022-09-07T05:09:12.218Z,80.20
2022-09-07T05:10:12.512Z,84.30
2022-09-07T05:11:12.166Z,87.40
2022-09-07T05:12:12.150Z,81.60
2022-09-07T05:13:12.443Z,76.10
2022-09-07T05:14:12.107Z,81.40
2022-09-07T05:15:12.114Z,88.40
2022-09-07T05:16:12.162Z,85.60
2022-09-07T05:17:12.095Z,86.00
2022-09-07T05:18:12.056Z,90.20
2022-09-07T05:19:12.478Z,79.20
2022-09-07T05:20:12.036Z,82.70
2022-09-07T05:21:12.043Z,79.40
2022-09-07T05:22:12.010Z,84.60
2022-09-07T05:23:12.047Z,79.70
2022-09-07T05:24:11.984Z,81.60
2022-09-07T05:25:11.982Z,81.30
2022-09-07T05:26:11.963Z,80.50
2022-09-07T05:27:11.955Z,78.70
2022-09-07T05:28:14.827Z,73.60
2022-09-07T05:32:11.877Z,82.80
2022-09-07T05:33:12.197Z,82.40
2022-09-07T05:34:32.995Z,82.30
2022-09-07T05:35:12.859Z,81.80
2022-09-07T05:36:11.831Z,81.70
2022-09-07T05:37:11.813Z,86.80
2022-09-07T05:38:12.106Z,80.00
2022-09-07T05:39:11.783Z,88.90
2022-09-07T05:40:11.864Z,89.00
2022-09-07T05:41:11.763Z,73.80
2022-09-07T05:42:11.757Z,84.60
2022-09-07T05:43:12.084Z,84.40
2022-09-07T05:45:12.713Z,89.00
2022-09-07T05:46:11.769Z,75.90
2022-09-07T05:47:11.699Z,81.90
2022-09-07T05:48:11.670Z,85.40
2022-09-07T05:49:12.091Z,80.60
2022-09-07T05:50:11.684Z,85.20
2022-09-07T05:51:11.632Z,84.80
2022-09-07T05:52:11.646Z,83.60
2022-09-07T05:53:11.906Z,92.60
2022-09-07T05:54:11.602Z,83.20
2022-09-07T05:55:28.863Z,83.00
2022-09-07T05:56:12.604Z,85.40
2022-09-07T05:57:11.583Z,93.80
2022-09-07T05:58:11.535Z,80.90
2022-09-07T05:59:11.914Z,89.20
2022-09-07T06:00:11.519Z,83.50
2022-09-07T06:01:11.563Z,86.00
2022-09-07T06:02:11.716Z,85.80
2022-09-07T06:03:12.028Z,83.80
2022-09-07T06:04:11.481Z,92.00
2022-09-07T06:05:11.473Z,90.60
2022-09-07T06:06:11.439Z,78.00
2022-09-07T06:07:21.479Z,84.70
2022-09-07T06:08:12.870Z,80.50
2022-09-07T06:09:11.415Z,79.80
2022-09-07T06:11:12.381Z,80.70
2022-09-07T06:12:11.379Z,73.60
2022-09-07T06:13:11.403Z,86.00
2022-09-07T06:14:11.340Z,72.10
2022-09-07T06:15:11.329Z,78.60
2022-09-07T06:16:11.368Z,78.20
2022-09-07T06:17:11.308Z,79.30
2022-09-07T06:18:11.298Z,78.60
2022-09-07T06:19:11.696Z,80.70
2022-09-07T06:20:11.271Z,79.70
2022-09-07T06:21:11.260Z,94.50
2022-09-07T06:22:11.250Z,84.00
2022-09-07T06:23:11.651Z,94.80
2022-09-07T06:24:11.223Z,86.60
2022-09-07T06:25:11.213Z,90.00
2022-09-07T06:26:11.219Z,85.30
2022-09-07T06:27:11.177Z,96.30
2022-09-07T06:28:11.211Z,89.30
2022-09-07T06:29:11.519Z,98.20
2022-09-07T06:30:11.141Z,100.20
2022-09-07T06:31:11.152Z,95.60
2022-09-07T06:33:12.409Z,88.40
2022-09-07T06:34:11.099Z,89.60
2022-09-07T06:35:11.082Z,89.90
2022-09-07T06:36:11.059Z,90.80
2022-09-07T06:37:11.039Z,83.20
2022-09-07T06:38:11.039Z,82.80
2022-09-07T06:39:11.368Z,80.00
2022-09-07T06:40:11.106Z,78.10
2022-09-07T06:42:12.001Z,78.60
2022-09-07T06:43:11.407Z,73.00
2022-09-07T06:44:10.963Z,74.20
2022-09-07T06:45:10.949Z,72.90
2022-09-07T06:47:11.919Z,51.20
2022-09-07T06:48:11.330Z,53.80
2022-09-07T06:49:10.890Z,55.30
2022-09-07T06:50:10.894Z,54.70
2022-09-07T06:51:10.948Z,38.10
2022-09-07T06:52:10.850Z,42.00
2022-09-07T06:53:35.007Z,35.70
2022-09-07T06:55:11.819Z,35.70
2022-09-07T06:56:10.817Z,39.30
2022-09-07T06:57:10.801Z,43.70
2022-09-07T06:58:10.798Z,46.00
2022-09-07T06:59:11.079Z,39.80
2022-09-07T07:00:10.770Z,41.70
2022-09-07T07:01:10.774Z,37.10
2022-09-07T07:02:10.729Z,43.70
2022-09-07T07:03:11.165Z,40.80
2022-09-07T07:04:10.709Z,33.00
2022-09-07T07:05:10.699Z,44.40
2022-09-07T07:06:10.715Z,34.40
2022-09-07T07:07:10.660Z,20.00
2022-09-07T07:08:10.649Z,21.90
2022-09-07T07:09:10.956Z,28.80
2022-09-07T07:10:10.629Z,25.20
2022-09-07T07:11:10.612Z,30.70
2022-09-07T07:12:10.639Z,24.90
2022-09-07T07:13:11.009Z,27.10
2022-09-07T07:14:10.579Z,32.90
2022-09-07T07:15:10.559Z,31.60
2022-09-07T07:16:10.598Z,25.20
2022-09-07T07:17:10.544Z,34.00
2022-09-07T07:18:20.817Z,34.50
2022-09-07T07:19:11.887Z,31.90
2022-09-07T07:20:10.492Z,26.90
2022-09-07T07:21:10.485Z,27.90
2022-09-07T07:22:29.632Z,19.10
2022-09-07T07:23:12.137Z,25.60
2022-09-07T07:24:10.450Z,25.40
2022-09-07T07:25:10.449Z,20.50
2022-09-07T07:26:10.429Z,14.50
2022-09-07T07:27:10.409Z,11.40
2022-09-07T07:29:14.703Z,8.40
2022-09-07T07:30:10.374Z,11.80
2022-09-07T07:31:13.112Z,3.90
2022-09-07T07:32:10.340Z,1.30
2022-09-07T07:33:10.805Z,0.20
2022-09-07T07:34:10.350Z,0.10
2022-09-07T07:35:10.298Z,0.10
2022-09-07T07:36:10.296Z,0.10
2022-09-07T07:37:10.271Z,0.10
2022-09-07T07:42:11.217Z,0.10
2022-09-07T07:43:10.522Z,0.10
2022-09-07T07:44:10.198Z,0.10
2022-09-07T07:46:11.216Z,0.10
2022-09-07T07:47:10.153Z,0.10
2022-09-07T07:48:10.151Z,0.10
2022-09-07T07:49:10.523Z,0.10
2022-09-07T07:50:33.749Z,0.10
2022-09-07T07:51:12.095Z,0.10
2022-09-07T07:53:41.691Z,0.10
2022-09-07T07:54:11.092Z,0.10
2022-09-07T07:56:11.046Z,0.10
2022-09-07T07:57:10.037Z,0.10
2022-09-07T07:58:10.027Z,0.10
2022-09-07T07:59:15.035Z,0.10
2022-09-07T08:00:10.998Z,0.20
2022-09-07T08:01:10.031Z,0.20
2022-09-07T08:02:10.070Z,0.20
2022-09-07T08:03:10.380Z,0.20
2022-09-07T08:04:09.967Z,0.20
2022-09-07T08:05:09.929Z,0.10
2022-09-07T08:06:09.918Z,0.10
2022-09-07T08:07:11.200Z,0.20
2022-09-07T08:08:09.895Z,0.10
2022-09-07T08:09:10.285Z,0.10
2022-09-07T08:10:09.873Z,0.10
2022-09-07T08:11:09.862Z,0.10
2022-09-07T08:12:10.097Z,0.10
2022-09-07T08:13:10.304Z,0.10
2022-09-07T08:14:09.821Z,0.10
2022-09-07T08:15:09.803Z,0.10
2022-09-07T08:16:09.844Z,0.20
2022-09-07T08:17:09.793Z,0.10
2022-09-07T08:18:10.095Z,0.10
2022-09-07T08:19:09.763Z,0.10
2022-09-07T08:20:09.753Z,0.20
2022-09-07T08:21:09.741Z,0.10
2022-09-07T08:22:09.730Z,0.10
2022-09-07T08:23:10.114Z,0.10
2022-09-07T08:24:09.706Z,0.10
2022-09-07T08:25:09.690Z,0.20
2022-09-07T08:26:09.673Z,0.20
2022-09-07T08:27:09.671Z,0.10
2022-09-07T08:28:09.644Z,0.10
2022-09-07T08:29:10.085Z,0.30
2022-09-07T08:30:09.623Z,0.20
2022-09-07T08:31:09.632Z,0.10
2022-09-07T08:32:09.601Z,0.10
2022-09-07T08:33:09.903Z,0.10
2022-09-07T08:34:09.574Z,0.10
2022-09-07T08:35:09.562Z,0.20
2022-09-07T08:36:09.574Z,0.10
2022-09-07T08:37:09.548Z,0.10
2022-09-07T08:38:09.522Z,0.10
2022-09-07T08:39:09.823Z,0.10
2022-09-07T08:40:09.570Z,0.20
2022-09-07T08:41:09.484Z,0.10
2022-09-07T08:42:09.472Z,0.10
2022-09-07T08:43:09.862Z,0.10
2022-09-07T08:44:09.456Z,0.20
2022-09-07T08:45:09.445Z,0.10
2022-09-07T08:46:09.475Z,0.10
2022-09-07T08:47:09.402Z,0.20
2022-09-07T08:48:09.406Z,0.10
2022-09-07T08:49:09.823Z,0.10
2022-09-07T08:50:09.374Z,0.20
2022-09-07T08:51:09.356Z,0.10
2022-09-07T08:52:09.353Z,0.10
2022-09-07T08:53:09.565Z,0.10
2022-09-07T08:54:09.321Z,0.10
2022-09-07T08:55:09.357Z,0.10
2022-09-07T08:56:09.300Z,0.10
2022-09-07T08:57:22.987Z,0.10
2022-09-07T08:58:22.063Z,0.10
2022-09-07T08:59:10.263Z,0.10
2022-09-07T09:00:09.245Z,0.10
2022-09-07T09:01:32.096Z,0.10
2022-09-07T09:02:40.144Z,0.10
2022-09-07T09:03:31.223Z,0.10
2022-09-07T09:04:18.440Z,0.10
2022-09-07T09:05:18.266Z,0.20
2022-09-07T09:06:10.317Z,0.10
2022-09-07T09:07:09.243Z,0.20
2022-09-07T09:08:09.180Z,0.10
2022-09-07T09:09:09.402Z,0.20
2022-09-07T09:10:09.132Z,0.10
2022-09-07T09:11:09.101Z,0.10
2022-09-07T09:12:09.097Z,0.10
2022-09-07T09:13:09.090Z,0.10
2022-09-07T09:14:09.333Z,0.10
2022-09-07T09:15:09.044Z,0.10
2022-09-07T09:16:09.214Z,0.10
2022-09-07T09:17:09.050Z,0.10
2022-09-07T09:18:11.192Z,0.10
2022-09-07T09:19:10.423Z,0.10
2022-09-07T09:20:09.011Z,0.20
2022-09-07T09:21:08.974Z,0.10
2022-09-07T09:22:08.963Z,0.10
2022-09-07T09:23:08.954Z,0.10
2022-09-07T09:24:09.273Z,0.10
2022-09-07T09:25:08.928Z,0.20
2022-09-07T09:26:08.916Z,0.10
2022-09-07T09:27:08.896Z,0.10
2022-09-07T09:28:08.893Z,0.10
2022-09-07T09:29:09.245Z,0.10
2022-09-07T09:30:08.873Z,0.10
2022-09-07T09:31:08.925Z,0.20
2022-09-07T09:32:08.842Z,0.10
2022-09-07T09:33:08.824Z,0.20
2022-09-07T09:34:09.243Z,0.10
2022-09-07T09:35:08.806Z,0.10
2022-09-07T09:36:08.805Z,0.10
2022-09-07T09:37:08.780Z,0.10
2022-09-07T09:38:08.763Z,0.10
2022-09-07T09:39:09.164Z,0.10
2022-09-07T09:40:08.755Z,0.10
2022-09-07T09:41:08.726Z,0.20
2022-09-07T09:42:08.704Z,0.10
2022-09-07T09:43:08.704Z,0.10
2022-09-07T09:44:08.964Z,0.10
2022-09-07T09:45:08.673Z,0.20
2022-09-07T09:46:14.785Z,0.10
2022-09-07T09:47:31.643Z,0.10
2022-09-07T09:48:09.633Z,0.20
2022-09-07T09:49:09.063Z,0.10
2022-09-07T09:50:08.759Z,0.10
2022-09-07T09:52:38.497Z,0.10
2022-09-07T09:53:09.575Z,0.10
2022-09-07T09:54:08.562Z,0.10
2022-09-07T09:55:33.346Z,0.10
2022-09-07T09:56:09.534Z,0.20
2022-09-07T09:57:08.514Z,0.10
2022-09-07T10:00:12.575Z,0.10
2022-09-07T10:01:25.323Z,0.10
2022-09-07T10:04:13.198Z,0.20
2022-09-07T10:05:09.663Z,0.10
2022-09-07T10:06:08.489Z,0.10
2022-09-07T10:07:08.424Z,0.20
2022-09-07T10:08:08.386Z,0.10
2022-09-07T10:09:08.363Z,0.20
2022-09-07T10:10:08.355Z,0.20
2022-09-07T10:11:08.754Z,0.20
2022-09-07T10:12:08.643Z,0.10
2022-09-07T10:13:08.320Z,0.20
2022-09-07T10:14:08.306Z,0.10
2022-09-07T10:15:08.283Z,0.10
2022-09-07T10:16:08.772Z,0.10
2022-09-07T10:17:08.254Z,0.20
2022-09-07T10:18:08.250Z,0.20
2022-09-07T10:19:08.233Z,0.20
2022-09-07T10:20:08.222Z,0.10
2022-09-07T10:21:08.535Z,0.10
2022-09-07T10:22:08.220Z,0.10
2022-09-07T10:23:08.173Z,0.10
2022-09-07T10:24:08.183Z,0.10
2022-09-07T10:25:08.177Z,0.10
2022-09-07T10:26:08.671Z,0.10
2022-09-07T10:27:08.134Z,0.10
2022-09-07T10:28:08.120Z,0.10
2022-09-07T10:29:08.538Z,0.10
2022-09-07T10:30:08.091Z,0.10
2022-09-07T10:31:13.939Z,0.10
2022-09-07T10:32:09.072Z,0.10
2022-09-07T10:33:08.080Z,0.10
2022-09-07T10:34:27.493Z,0.10
2022-09-07T10:35:09.061Z,0.10
2022-09-07T10:36:08.447Z,0.10
2022-09-07T10:37:08.024Z,0.10
2022-09-07T10:38:08.012Z,0.20
2022-09-07T10:39:07.986Z,0.10
2022-09-07T10:40:07.964Z,0.10
2022-09-07T10:41:08.278Z,0.10
2022-09-07T10:42:07.944Z,0.10
2022-09-07T10:43:22.861Z,0.10
2022-09-07T10:44:09.348Z,0.10
2022-09-07T10:45:07.915Z,0.20
2022-09-07T10:46:08.253Z,0.10
2022-09-07T10:47:07.971Z,0.10
2022-09-07T10:48:07.885Z,0.10
2022-09-07T10:49:07.864Z,0.20
2022-09-07T10:50:23.508Z,0.10
2022-09-07T10:51:14.001Z,0.10
2022-09-07T10:52:08.827Z,0.10
2022-09-07T10:53:36.650Z,0.10
2022-09-07T10:54:31.393Z,0.20
2022-09-07T10:55:08.788Z,0.10
2022-09-07T10:56:07.772Z,0.10
2022-09-07T10:57:08.185Z,0.10
2022-09-07T10:58:07.742Z,0.10
2022-09-07T10:59:07.735Z,0.10
2022-09-07T11:00:08.251Z,0.10
2022-09-07T11:01:07.767Z,0.10
2022-09-07T11:02:08.079Z,0.10
2022-09-07T11:03:27.248Z,0.10
2022-09-07T11:04:08.706Z,0.10
2022-09-07T11:05:07.663Z,0.10
2022-09-07T11:06:07.649Z,0.10
2022-09-07T11:07:09.453Z,0.10
2022-09-07T11:08:07.934Z,0.30
2022-09-07T11:09:16.243Z,0.10
2022-09-07T11:10:08.625Z,0.20
2022-09-07T11:11:07.586Z,0.10
2022-09-07T11:12:07.578Z,0.10
2022-09-07T11:13:08.027Z,0.20
2022-09-07T11:14:13.049Z,0.20
2022-09-07T11:15:08.534Z,0.10
2022-09-07T11:16:07.662Z,0.10
2022-09-07T11:17:07.544Z,0.10
2022-09-07T11:18:07.498Z,0.10
2022-09-07T11:19:36.488Z,0.10
2022-09-07T11:20:08.542Z,0.10
2022-09-07T11:21:07.464Z,0.10
2022-09-07T11:22:07.447Z,0.20
2022-09-07T11:23:07.894Z,0.10
2022-09-07T11:24:07.427Z,0.10
2022-09-07T11:25:30.978Z,0.10
2022-09-07T11:26:08.400Z,0.10
2022-09-07T11:27:07.388Z,0.10
2022-09-07T11:28:07.375Z,0.10
2022-09-07T11:29:30.247Z,0.20
2022-09-07T11:30:08.382Z,0.10
2022-09-07T11:31:07.386Z,0.10
2022-09-07T11:32:07.336Z,0.10
2022-09-07T11:33:07.628Z,0.10
2022-09-07T11:34:25.699Z,0.20
2022-09-07T11:35:08.291Z,0.10
2022-09-07T11:36:11.855Z,0.10
2022-09-07T11:37:08.264Z,0.10
2022-09-07T11:38:07.248Z,0.10
2022-09-07T11:39:07.676Z,0.20
2022-09-07T11:40:07.354Z,0.10
2022-09-07T11:41:07.213Z,0.10
2022-09-07T11:43:11.456Z,0.10
2022-09-07T11:44:07.174Z,0.10
2022-09-07T11:45:07.155Z,0.00
2022-09-07T11:46:07.235Z,0.10
2022-09-07T11:47:07.136Z,0.10
2022-09-07T11:48:07.122Z,0.10
2022-09-07T11:49:07.494Z,0.10
2022-09-07T11:50:07.087Z,0.10
2022-09-07T11:51:07.100Z,0.10
2022-09-07T11:52:07.085Z,0.10
2022-09-07T11:53:07.083Z,0.10
2022-09-07T11:54:07.468Z,0.10
2022-09-07T11:55:07.039Z,0.20
2022-09-07T11:56:07.025Z,0.10
2022-09-07T11:57:07.007Z,0.10
2022-09-07T11:58:06.998Z,0.10
2022-09-07T11:59:07.430Z,0.10
2022-09-07T12:00:06.976Z,0.10
2022-09-07T12:01:06.963Z,0.10
2022-09-07T12:02:07.018Z,0.10
2022-09-07T12:03:06.992Z,0.10
2022-09-07T12:04:07.075Z,0.10
2022-09-07T12:05:06.919Z,0.10
2022-09-07T12:06:06.897Z,0.10
2022-09-07T12:07:06.920Z,0.10
2022-09-07T12:08:06.886Z,0.10
2022-09-07T12:09:07.303Z,0.10
2022-09-07T12:10:06.859Z,0.10
2022-09-07T12:11:06.846Z,0.10
2022-09-07T12:12:06.837Z,0.10
2022-09-07T12:13:06.826Z,0.10
2022-09-07T12:14:06.822Z,0.10
2022-09-07T12:15:07.137Z,0.10
2022-09-07T12:16:06.817Z,0.20
2022-09-07T12:17:06.777Z,0.10
2022-09-07T12:18:06.753Z,0.10
2022-09-07T12:19:06.755Z,0.10
2022-09-07T12:20:07.116Z,0.20
2022-09-07T12:21:06.727Z,0.10
2022-09-07T12:22:06.697Z,0.20
2022-09-07T12:23:06.698Z,0.10
2022-09-07T12:24:06.677Z,0.20
2022-09-07T12:25:06.986Z,0.20
2022-09-07T12:26:06.648Z,0.20
2022-09-07T12:27:06.640Z,0.10
2022-09-07T12:28:06.626Z,0.10
2022-09-07T12:29:06.618Z,0.20
2022-09-07T12:30:06.626Z,0.10
2022-09-07T12:31:06.665Z,0.10
2022-09-07T12:32:53.238Z,0.10
2022-09-07T12:33:07.591Z,0.10
2022-09-07T12:34:06.557Z,0.20
2022-09-07T12:35:06.847Z,0.10
2022-09-07T12:36:06.528Z,0.10
2022-09-07T12:37:11.651Z,0.10
2022-09-07T12:38:07.504Z,0.10
2022-09-07T12:39:06.500Z,0.20
2022-09-07T12:40:06.876Z,0.10
2022-09-07T12:41:06.477Z,0.20
2022-09-07T12:42:33.035Z,0.10
2022-09-07T12:43:09.832Z,0.10
2022-09-07T12:44:06.424Z,0.10
2022-09-07T12:45:06.727Z,0.10
2022-09-07T12:46:06.475Z,0.10
2022-09-07T12:47:06.383Z,0.10
2022-09-07T12:48:06.379Z,0.10
2022-09-07T12:49:06.362Z,0.10
2022-09-07T12:50:06.676Z,0.10
2022-09-07T12:51:06.364Z,0.10
2022-09-07T12:52:15.285Z,0.10
2022-09-07T12:53:07.322Z,0.10
2022-09-07T12:54:06.289Z,0.20
2022-09-07T12:55:26.656Z,0.10
2022-09-07T12:56:17.698Z,0.20
2022-09-07T12:57:30.515Z,0.10
2022-09-07T12:58:07.245Z,0.10
2022-09-07T12:59:06.229Z,0.00
2022-09-07T13:00:06.229Z,0.10
2022-09-07T13:01:06.418Z,0.10
2022-09-07T13:02:06.276Z,0.10
2022-09-07T13:03:06.264Z,0.10
2022-09-07T13:04:06.165Z,0.10
2022-09-07T13:05:06.407Z,0.10
2022-09-07T13:06:06.543Z,0.10
2022-09-07T13:07:06.135Z,0.10
2022-09-07T13:08:09.028Z,0.10
2022-09-07T13:09:06.116Z,0.20
2022-09-07T13:10:06.105Z,0.20
2022-09-07T13:11:06.456Z,0.10
2022-09-07T13:12:07.238Z,0.10
2022-09-07T13:13:06.066Z,0.10
2022-09-07T13:14:08.844Z,0.10
2022-09-07T13:15:06.034Z,0.10
2022-09-07T13:16:06.076Z,0.10
2022-09-07T13:17:17.612Z,0.10
2022-09-07T13:18:06.996Z,0.10
2022-09-07T13:19:05.997Z,0.10
2022-09-07T13:20:05.967Z,0.10
2022-09-07T13:21:06.257Z,0.10
2022-09-07T13:22:05.949Z,0.10
2022-09-07T13:23:05.931Z,0.10
2022-09-07T13:24:45.560Z,0.10
2022-09-07T13:25:06.917Z,0.10
2022-09-07T13:26:05.910Z,0.10